sensor_id;sensor_type;location;lat;lon;timestamp;pressure;altitude;pressure_sealevel;temperature;humidity
8573;BME280;4324;42.012;24.872;2023-01-29T00:01:50;99030.16;;;4.31;100.00
8573;BME280;4324;42.012;24.872;2023-01-29T00:04:17;99040.84;;;4.39;100.00
8573;BME280;4324;42.012;24.872;2023-01-29T00:06:45;99053.56;;;4.44;100.00
8573;BME280;4324;42.012;24.872;2023-01-29T00:09:12;99064.53;;;4.49;100.00
8573;BME280;4324;42.012;24.872;2023-01-29T00:11:40;99059.63;;;4.44;100.00
8573;BME280;4324;42.012;24.872;2023-01-29T00:14:07;99072.38;;;4.49;100.00
8573;BME280;4324;42.012;24.872;2023-01-29T00:16:34;99062.72;;;4.49;100.00
8573;BME280;4324;42.012;24.872;2023-01-29T00:19:01;99060.72;;;4.42;100.00
8573;BME280;4324;42.012;24.872;2023-01-29T00:21:28;99058.13;;;4.42;100.00
8573;BME280;4324;42.012;24.872;2023-01-29T00:23:58;99063.09;;;4.45;100.00
8573;BME280;4324;42.012;24.872;2023-01-29T00:26:26;99076.53;;;4.51;100.00
8573;BME280;4324;42.012;24.872;2023-01-29T00:28:54;99057.63;;;4.36;100.00
8573;BME280;4324;42.012;24.872;2023-01-29T00:31:23;99079.16;;;4.51;100.00
8573;BME280;4324;42.012;24.872;2023-01-29T00:33:50;99084.28;;;4.53;100.00
8573;BME280;4324;42.012;24.872;2023-01-29T00:36:18;99085.94;;;4.54;100.00
8573;BME280;4324;42.012;24.872;2023-01-29T00:38:46;99068.91;;;4.48;100.00
8573;BME280;4324;42.012;24.872;2023-01-29T00:41:20;99053.44;;;4.45;100.00
8573;BME280;4324;42.012;24.872;2023-01-29T00:44:06;99067.34;;;4.57;100.00
8573;BME280;4324;42.012;24.872;2023-01-29T00:46:51;99070.16;;;4.65;100.00
8573;BME280;4324;42.012;24.872;2023-01-29T00:49:19;99067.28;;;4.68;100.00
8573;BME280;4324;42.012;24.872;2023-01-29T00:51:46;99077.72;;;4.79;100.00
8573;BME280;4324;42.012;24.872;2023-01-29T00:54:34;99069.59;;;4.82;100.00
8573;BME280;4324;42.012;24.872;2023-01-29T00:57:03;99069.97;;;4.78;100.00
8573;BME280;4324;42.012;24.872;2023-01-29T00:59:30;99071.25;;;4.83;100.00
8573;BME280;4324;42.012;24.872;2023-01-29T01:01:57;99071.00;;;4.87;100.00
8573;BME280;4324;42.012;24.872;2023-01-29T01:04:41;99052.31;;;4.80;100.00
8573;BME280;4324;42.012;24.872;2023-01-29T01:07:08;99061.34;;;4.87;100.00
8573;BME280;4324;42.012;24.872;2023-01-29T01:09:35;99064.94;;;4.86;100.00
8573;BME280;4324;42.012;24.872;2023-01-29T01:12:21;99061.00;;;4.80;100.00
8573;BME280;4324;42.012;24.872;2023-01-29T01:14:48;99059.22;;;4.81;100.00
8573;BME280;4324;42.012;24.872;2023-01-29T01:17:16;99062.47;;;4.73;100.00
8573;BME280;4324;42.012;24.872;2023-01-29T01:19:43;99063.94;;;4.66;100.00
8573;BME280;4324;42.012;24.872;2023-01-29T01:22:09;99067.09;;;4.60;100.00
8573;BME280;4324;42.012;24.872;2023-01-29T01:24:37;99081.63;;;4.64;100.00
8573;BME280;4324;42.012;24.872;2023-01-29T01:27:04;99077.84;;;4.57;100.00
8573;BME280;4324;42.012;24.872;2023-01-29T01:29:33;99050.53;;;4.27;100.00
8573;BME280;4324;42.012;24.872;2023-01-29T01:32:00;99091.47;;;4.40;99.52
8573;BME280;4324;42.012;24.872;2023-01-29T01:34:27;99084.38;;;4.30;99.26
8573;BME280;4324;42.012;24.872;2023-01-29T01:36:54;99097.00;;;4.25;98.72
8573;BME280;4324;42.012;24.872;2023-01-29T01:39:22;99084.16;;;4.11;98.74
8573;BME280;4324;42.012;24.872;2023-01-29T01:41:50;99095.75;;;4.08;99.55
8573;BME280;4324;42.012;24.872;2023-01-29T01:47:39;99060.78;;;3.76;99.85
8573;BME280;4324;42.012;24.872;2023-01-29T01:50:10;99088.84;;;3.85;98.93
8573;BME280;4324;42.012;24.872;2023-01-29T01:52:40;99093.75;;;3.90;99.56
8573;BME280;4324;42.012;24.872;2023-01-29T01:55:10;99088.84;;;3.85;100.00
8573;BME280;4324;42.012;24.872;2023-01-29T01:57:40;99087.44;;;3.81;100.00
8573;BME280;4324;42.012;24.872;2023-01-29T02:00:11;99094.94;;;3.85;100.00
8573;BME280;4324;42.012;24.872;2023-01-29T02:02:43;99102.09;;;3.83;100.00
8573;BME280;4324;42.012;24.872;2023-01-29T02:05:29;98979.69;;;3.08;100.00
8573;BME280;4324;42.012;24.872;2023-01-29T02:08:17;99087.06;;;3.74;100.00
8573;BME280;4324;42.012;24.872;2023-01-29T02:11:05;99089.09;;;3.71;100.00
8573;BME280;4324;42.012;24.872;2023-01-29T02:13:32;99100.66;;;3.79;100.00
8573;BME280;4324;42.012;24.872;2023-01-29T02:15:59;99092.09;;;3.77;100.00
8573;BME280;4324;42.012;24.872;2023-01-29T02:18:28;99103.28;;;3.79;100.00
8573;BME280;4324;42.012;24.872;2023-01-29T02:21:14;99105.91;;;3.79;100.00
8573;BME280;4324;42.012;24.872;2023-01-29T02:24:10;99091.03;;;3.69;100.00
8573;BME280;4324;42.012;24.872;2023-01-29T02:27:04;99080.44;;;3.59;100.00
8573;BME280;4324;42.012;24.872;2023-01-29T02:29:42;99086.63;;;3.69;100.00
8573;BME280;4324;42.012;24.872;2023-01-29T02:32:16;99115.41;;;3.80;100.00
8573;BME280;4324;42.012;24.872;2023-01-29T02:34:53;99105.53;;;3.73;100.00
8573;BME280;4324;42.012;24.872;2023-01-29T02:37:49;99118.03;;;3.80;100.00
8573;BME280;4324;42.012;24.872;2023-01-29T02:40:25;99115.88;;;3.74;100.00
8573;BME280;4324;42.012;24.872;2023-01-29T02:43:00;99082.81;;;3.62;100.00
8573;BME280;4324;42.012;24.872;2023-01-29T02:45:34;99130.66;;;3.86;100.00
8573;BME280;4324;42.012;24.872;2023-01-29T02:48:05;99114.81;;;3.88;100.00
8573;BME280;4324;42.012;24.872;2023-01-29T02:50:37;99105.41;;;3.85;100.00
8573;BME280;4324;42.012;24.872;2023-01-29T02:53:13;99121.38;;;3.94;100.00
8573;BME280;4324;42.012;24.872;2023-01-29T02:55:43;99131.34;;;4.00;100.00
8573;BME280;4324;42.012;24.872;2023-01-29T02:58:16;99135.38;;;4.04;100.00
8573;BME280;4324;42.012;24.872;2023-01-29T03:00:47;99126.38;;;4.08;100.00
8573;BME280;4324;42.012;24.872;2023-01-29T03:03:17;99124.66;;;4.07;100.00
8573;BME280;4324;42.012;24.872;2023-01-29T03:05:52;99118.97;;;4.02;100.00
8573;BME280;4324;42.012;24.872;2023-01-29T03:08:28;99135.97;;;4.19;100.00
8573;BME280;4324;42.012;24.872;2023-01-29T03:11:08;99138.34;;;4.22;100.00
8573;BME280;4324;42.012;24.872;2023-01-29T03:13:42;99128.69;;;4.22;100.00
8573;BME280;4324;42.012;24.872;2023-01-29T03:16:15;99137.50;;;4.21;100.00
8573;BME280;4324;42.012;24.872;2023-01-29T03:18:48;99138.94;;;4.25;100.00
8573;BME280;4324;42.012;24.872;2023-01-29T03:21:21;99127.28;;;4.18;100.00
8573;BME280;4324;42.012;24.872;2023-01-29T03:24:03;99133.94;;;4.22;100.00
8573;BME280;4324;42.012;24.872;2023-01-29T03:26:49;99158.00;;;4.27;100.00
8573;BME280;4324;42.012;24.872;2023-01-29T03:29:35;99148.13;;;4.31;100.00
8573;BME280;4324;42.012;24.872;2023-01-29T03:32:24;99148.44;;;4.26;100.00
8573;BME280;4324;42.012;24.872;2023-01-29T03:34:57;99163.25;;;4.27;100.00
8573;BME280;4324;42.012;24.872;2023-01-29T03:37:28;99159.31;;;4.22;100.00
8573;BME280;4324;42.012;24.872;2023-01-29T03:39:59;99128.72;;;4.00;100.00
8573;BME280;4324;42.012;24.872;2023-01-29T03:42:31;99149.69;;;4.11;100.00
8573;BME280;4324;42.012;24.872;2023-01-29T03:45:05;99160.75;;;4.15;100.00
8573;BME280;4324;42.012;24.872;2023-01-29T03:47:42;99162.78;;;4.11;100.00
8573;BME280;4324;42.012;24.872;2023-01-29T03:50:18;99154.94;;;4.00;100.00
8573;BME280;4324;42.012;24.872;2023-01-29T03:52:50;99174.09;;;4.11;100.00
8573;BME280;4324;42.012;24.872;2023-01-29T03:55:23;99167.31;;;4.09;99.60
8573;BME280;4324;42.012;24.872;2023-01-29T03:57:58;99174.47;;;4.07;99.86
8573;BME280;4324;42.012;24.872;2023-01-29T04:00:28;99142.06;;;3.85;99.94
8573;BME280;4324;42.012;24.872;2023-01-29T04:03:04;99163.38;;;3.92;100.00
8573;BME280;4324;42.012;24.872;2023-01-29T04:05:38;99179.94;;;4.04;100.00
8573;BME280;4324;42.012;24.872;2023-01-29T04:08:09;99180.31;;;3.99;99.96
8573;BME280;4324;42.012;24.872;2023-01-29T04:10:40;99178.06;;;3.95;100.00
8573;BME280;4324;42.012;24.872;2023-01-29T04:13:10;99144.97;;;3.71;99.90
8573;BME280;4324;42.012;24.872;2023-01-29T04:15:40;99184.00;;;3.85;99.31
8573;BME280;4324;42.012;24.872;2023-01-29T04:18:11;99173.78;;;3.82;100.00
8573;BME280;4324;42.012;24.872;2023-01-29T04:20:38;99188.63;;;3.82;100.00
8573;BME280;4324;42.012;24.872;2023-01-29T04:23:06;99196.84;;;3.77;100.00
8573;BME280;4324;42.012;24.872;2023-01-29T04:25:46;99203.41;;;3.72;100.00
8573;BME280;4324;42.012;24.872;2023-01-29T04:28:22;99160.75;;;3.36;100.00
8573;BME280;4324;42.012;24.872;2023-01-29T04:30:53;99204.31;;;3.59;100.00
8573;BME280;4324;42.012;24.872;2023-01-29T04:33:30;99140.59;;;3.14;100.00
8573;BME280;4324;42.012;24.872;2023-01-29T04:36:15;99201.81;;;3.47;100.00
8573;BME280;4324;42.012;24.872;2023-01-29T04:38:56;99205.63;;;3.43;100.00
8573;BME280;4324;42.012;24.872;2023-01-29T04:41:28;99199.91;;;3.37;100.00
8573;BME280;4324;42.012;24.872;2023-01-29T04:44:01;99208.91;;;3.33;100.00
8573;BME280;4324;42.012;24.872;2023-01-29T04:46:34;99188.69;;;3.24;100.00
8573;BME280;4324;42.012;24.872;2023-01-29T04:49:19;99215.00;;;3.34;100.00
8573;BME280;4324;42.012;24.872;2023-01-29T04:51:52;99215.59;;;3.37;100.00
8573;BME280;4324;42.012;24.872;2023-01-29T04:54:30;99213.22;;;3.34;100.00
8573;BME280;4324;42.012;24.872;2023-01-29T04:57:05;99212.72;;;3.29;100.00
8573;BME280;4324;42.012;24.872;2023-01-29T04:59:39;99227.75;;;3.38;100.00
8573;BME280;4324;42.012;24.872;2023-01-29T05:02:09;99220.34;;;3.32;100.00
8573;BME280;4324;42.012;24.872;2023-01-29T05:04:40;99222.13;;;3.32;100.00
8573;BME280;4324;42.012;24.872;2023-01-29T05:07:10;99240.00;;;3.38;100.00
8573;BME280;4324;42.012;24.872;2023-01-29T05:09:41;99215.91;;;3.22;100.00
8573;BME280;4324;42.012;24.872;2023-01-29T05:12:11;99219.69;;;3.18;100.00
8573;BME280;4324;42.012;24.872;2023-01-29T05:14:39;99237.94;;;3.30;100.00
8573;BME280;4324;42.012;24.872;2023-01-29T05:17:10;99239.72;;;3.30;100.00
8573;BME280;4324;42.012;24.872;2023-01-29T05:19:41;99235.56;;;3.27;100.00
8573;BME280;4324;42.012;24.872;2023-01-29T05:22:10;99230.16;;;3.18;100.00
8573;BME280;4324;42.012;24.872;2023-01-29T05:24:38;99238.75;;;3.20;100.00
8573;BME280;4324;42.012;24.872;2023-01-29T05:27:05;99238.88;;;3.29;100.00
8573;BME280;4324;42.012;24.872;2023-01-29T05:29:50;99256.63;;;3.37;100.00
8573;BME280;4324;42.012;24.872;2023-01-29T05:32:17;99214.06;;;3.11;100.00
8573;BME280;4324;42.012;24.872;2023-01-29T05:34:46;99196.81;;;2.97;100.00
8573;BME280;4324;42.012;24.872;2023-01-29T05:37:13;99253.53;;;3.32;100.00
8573;BME280;4324;42.012;24.872;2023-01-29T05:39:39;99255.53;;;3.28;100.00
8573;BME280;4324;42.012;24.872;2023-01-29T05:42:07;99250.44;;;3.27;100.00
8573;BME280;4324;42.012;24.872;2023-01-29T05:44:33;99261.25;;;3.33;100.00
8573;BME280;4324;42.012;24.872;2023-01-29T05:47:00;99186.78;;;2.91;100.00
8573;BME280;4324;42.012;24.872;2023-01-29T05:49:28;99262.94;;;3.34;100.00
8573;BME280;4324;42.012;24.872;2023-01-29T05:51:56;99263.06;;;3.44;100.00
8573;BME280;4324;42.012;24.872;2023-01-29T05:54:23;99251.16;;;3.40;100.00
8573;BME280;4324;42.012;24.872;2023-01-29T05:56:50;99236.66;;;3.36;100.00
8573;BME280;4324;42.012;24.872;2023-01-29T05:59:17;99242.97;;;3.45;100.00
8573;BME280;4324;42.012;24.872;2023-01-29T06:01:44;99257.78;;;3.57;100.00
8573;BME280;4324;42.012;24.872;2023-01-29T06:04:11;99271.59;;;3.70;100.00
8573;BME280;4324;42.012;24.872;2023-01-29T06:06:38;99266.34;;;3.70;100.00
8573;BME280;4324;42.012;24.872;2023-01-29T06:09:09;99270.09;;;3.79;100.00
8573;BME280;4324;42.012;24.872;2023-01-29T06:11:36;99277.59;;;3.83;100.00
8573;BME280;4324;42.012;24.872;2023-01-29T06:14:03;99269.97;;;3.80;100.00
8573;BME280;4324;42.012;24.872;2023-01-29T06:16:30;99263.28;;;3.76;100.00
8573;BME280;4324;42.012;24.872;2023-01-29T06:18:57;99272.56;;;3.80;100.00
8573;BME280;4324;42.012;24.872;2023-01-29T06:21:24;99267.69;;;3.76;100.00
8573;BME280;4324;42.012;24.872;2023-01-29T06:23:52;99263.03;;;3.68;100.00
8573;BME280;4324;42.012;24.872;2023-01-29T06:26:21;99266.88;;;3.75;100.00
8573;BME280;4324;42.012;24.872;2023-01-29T06:28:48;99254.94;;;3.71;100.00
8573;BME280;4324;42.012;24.872;2023-01-29T06:31:15;99279.84;;;3.77;100.00
8573;BME280;4324;42.012;24.872;2023-01-29T06:33:43;99242.50;;;3.51;100.00
8573;BME280;4324;42.012;24.872;2023-01-29T06:36:16;99230.34;;;3.38;100.00
8573;BME280;4324;42.012;24.872;2023-01-29T06:38:43;99215.44;;;3.28;100.00
8573;BME280;4324;42.012;24.872;2023-01-29T06:41:11;99262.41;;;3.53;100.00
8573;BME280;4324;42.012;24.872;2023-01-29T06:43:44;99318.66;;;3.83;100.00
8573;BME280;4324;42.012;24.872;2023-01-29T06:46:11;99262.97;;;3.46;100.00
8573;BME280;4324;42.012;24.872;2023-01-29T06:48:38;99292.06;;;3.65;100.00
8573;BME280;4324;42.012;24.872;2023-01-29T06:51:07;99231.53;;;3.34;100.00
8573;BME280;4324;42.012;24.872;2023-01-29T06:53:36;99314.75;;;3.88;100.00
8573;BME280;4324;42.012;24.872;2023-01-29T06:56:04;99297.22;;;3.78;100.00
8573;BME280;4324;42.012;24.872;2023-01-29T06:58:31;99283.03;;;3.69;100.00
8573;BME280;4324;42.012;24.872;2023-01-29T07:01:04;99325.72;;;3.94;100.00
8573;BME280;4324;42.012;24.872;2023-01-29T07:03:31;99259.88;;;3.52;100.00
8573;BME280;4324;42.012;24.872;2023-01-29T07:05:58;99263.25;;;3.54;100.00
8573;BME280;4324;42.012;24.872;2023-01-29T07:08:25;99343.34;;;4.03;100.00
8573;BME280;4324;42.012;24.872;2023-01-29T07:10:54;99333.84;;;4.02;100.00
8573;BME280;4324;42.012;24.872;2023-01-29T07:13:23;99315.44;;;3.79;100.00
8573;BME280;4324;42.012;24.872;2023-01-29T07:15:50;99338.56;;;3.97;100.00
8573;BME280;4324;42.012;24.872;2023-01-29T07:18:19;99329.63;;;3.88;100.00
8573;BME280;4324;42.012;24.872;2023-01-29T07:20:45;99338.34;;;4.00;100.00
8573;BME280;4324;42.012;24.872;2023-01-29T07:23:13;99325.63;;;4.06;100.00
8573;BME280;4324;42.012;24.872;2023-01-29T07:25:40;99345.91;;;4.16;100.00
8573;BME280;4324;42.012;24.872;2023-01-29T07:28:09;99347.44;;;4.18;100.00
8573;BME280;4324;42.012;24.872;2023-01-29T07:30:38;99342.09;;;4.20;100.00
8573;BME280;4324;42.012;24.872;2023-01-29T07:33:08;99325.75;;;4.16;100.00
8573;BME280;4324;42.012;24.872;2023-01-29T07:35:37;99340.53;;;4.28;100.00
8573;BME280;4324;42.012;24.872;2023-01-29T07:38:05;99336.03;;;4.30;100.00
8573;BME280;4324;42.012;24.872;2023-01-29T07:40:32;99340.53;;;4.40;100.00
8573;BME280;4324;42.012;24.872;2023-01-29T07:43:00;99354.97;;;4.45;100.00
8573;BME280;4324;42.012;24.872;2023-01-29T07:45:27;99313.59;;;4.26;100.00
8573;BME280;4324;42.012;24.872;2023-01-29T07:47:55;99326.97;;;4.34;100.00
8573;BME280;4324;42.012;24.872;2023-01-29T07:50:23;99340.19;;;4.44;100.00
8573;BME280;4324;42.012;24.872;2023-01-29T07:52:53;99341.16;;;4.43;100.00
8573;BME280;4324;42.012;24.872;2023-01-29T07:55:20;99345.31;;;4.46;100.00
8573;BME280;4324;42.012;24.872;2023-01-29T07:57:47;99347.00;;;4.47;100.00
8573;BME280;4324;42.012;24.872;2023-01-29T08:00:23;99361.53;;;4.51;100.00
8573;BME280;4324;42.012;24.872;2023-01-29T08:03:01;99334.25;;;4.42;100.00
8573;BME280;4324;42.012;24.872;2023-01-29T08:05:29;99349.59;;;4.58;100.00
8573;BME280;4324;42.012;24.872;2023-01-29T08:07:57;99350.44;;;4.58;100.00
8573;BME280;4324;42.012;24.872;2023-01-29T08:10:25;99300.47;;;4.26;100.00
8573;BME280;4324;42.012;24.872;2023-01-29T08:12:56;99245.56;;;3.91;100.00
8573;BME280;4324;42.012;24.872;2023-01-29T08:15:24;99364.88;;;4.64;100.00
8573;BME280;4324;42.012;24.872;2023-01-29T08:17:57;99361.06;;;4.68;100.00
8573;BME280;4324;42.012;24.872;2023-01-29T08:20:41;99370.22;;;4.74;100.00
8573;BME280;4324;42.012;24.872;2023-01-29T08:23:12;99372.63;;;4.77;100.00
8573;BME280;4324;42.012;24.872;2023-01-29T08:25:40;99363.19;;;4.74;100.00
8573;BME280;4324;42.012;24.872;2023-01-29T08:28:07;99351.03;;;4.73;100.00
8573;BME280;4324;42.012;24.872;2023-01-29T08:30:37;99365.69;;;4.87;100.00
8573;BME280;4324;42.012;24.872;2023-01-29T08:33:04;99365.34;;;4.80;100.00
8573;BME280;4324;42.012;24.872;2023-01-29T08:35:31;99375.81;;;4.92;100.00
8573;BME280;4324;42.012;24.872;2023-01-29T08:37:59;99325.88;;;4.59;100.00
8573;BME280;4324;42.012;24.872;2023-01-29T08:40:30;99390.25;;;4.97;100.00
8573;BME280;4324;42.012;24.872;2023-01-29T08:42:58;99376.78;;;4.91;100.00
8573;BME280;4324;42.012;24.872;2023-01-29T08:45:25;99396.34;;;4.98;100.00
8573;BME280;4324;42.012;24.872;2023-01-29T08:48:06;99367.81;;;4.82;100.00
8573;BME280;4324;42.012;24.872;2023-01-29T08:50:34;99362.94;;;4.89;99.93
8573;BME280;4324;42.012;24.872;2023-01-29T08:53:02;99391.19;;;5.07;99.96
8573;BME280;4324;42.012;24.872;2023-01-29T08:55:34;99388.31;;;5.10;99.98
8573;BME280;4324;42.012;24.872;2023-01-29T08:58:02;99380.09;;;5.04;100.00
8573;BME280;4324;42.012;24.872;2023-01-29T09:00:30;99393.47;;;5.12;100.00
8573;BME280;4324;42.012;24.872;2023-01-29T09:02:57;99377.81;;;5.10;99.45
8573;BME280;4324;42.012;24.872;2023-01-29T09:05:25;99369.84;;;5.12;100.00
8573;BME280;4324;42.012;24.872;2023-01-29T09:07:52;99363.88;;;5.10;100.00
8573;BME280;4324;42.012;24.872;2023-01-29T09:10:19;99371.25;;;5.16;100.00
8573;BME280;4324;42.012;24.872;2023-01-29T09:12:48;99342.41;;;5.05;100.00
8573;BME280;4324;42.012;24.872;2023-01-29T09:15:18;99352.69;;;5.08;100.00
8573;BME280;4324;42.012;24.872;2023-01-29T09:17:45;99397.00;;;5.33;99.08
8573;BME280;4324;42.012;24.872;2023-01-29T09:20:14;99383.16;;;5.31;97.84
8573;BME280;4324;42.012;24.872;2023-01-29T09:22:41;99362.44;;;5.17;96.42
8573;BME280;4324;42.012;24.872;2023-01-29T09:25:08;99322.88;;;4.98;95.92
8573;BME280;4324;42.012;24.872;2023-01-29T09:27:35;99369.19;;;5.31;95.86
8573;BME280;4324;42.012;24.872;2023-01-29T09:30:05;99373.25;;;5.35;94.95
8573;BME280;4324;42.012;24.872;2023-01-29T09:32:33;99365.97;;;5.39;95.05
8573;BME280;4324;42.012;24.872;2023-01-29T09:35:00;99375.47;;;5.51;95.65
8573;BME280;4324;42.012;24.872;2023-01-29T09:37:27;99372.13;;;5.49;95.29
8573;BME280;4324;42.012;24.872;2023-01-29T09:39:54;99369.97;;;5.54;96.23
8573;BME280;4324;42.012;24.872;2023-01-29T09:42:24;99377.59;;;5.57;97.06
8573;BME280;4324;42.012;24.872;2023-01-29T09:44:58;99309.69;;;5.20;99.67
8573;BME280;4324;42.012;24.872;2023-01-29T09:47:34;99376.97;;;5.65;97.54
8573;BME280;4324;42.012;24.872;2023-01-29T09:50:04;99367.44;;;5.52;97.16
8573;BME280;4324;42.012;24.872;2023-01-29T09:52:35;99371.38;;;5.58;97.47
8573;BME280;4324;42.012;24.872;2023-01-29T09:55:08;99372.09;;;5.60;98.17
8573;BME280;4324;42.012;24.872;2023-01-29T09:57:43;99359.78;;;5.61;98.69
8573;BME280;4324;42.012;24.872;2023-01-29T10:00:14;99354.28;;;5.64;98.74
8573;BME280;4324;42.012;24.872;2023-01-29T10:02:57;99369.47;;;5.60;97.32
8573;BME280;4324;42.012;24.872;2023-01-29T10:05:57;99362.63;;;5.69;97.56
8573;BME280;4324;42.012;24.872;2023-01-29T10:09:02;99367.97;;;5.67;97.40
8573;BME280;4324;42.012;24.872;2023-01-29T10:11:44;99357.47;;;5.67;98.26
8573;BME280;4324;42.012;24.872;2023-01-29T10:14:21;99359.16;;;5.68;99.27
8573;BME280;4324;42.012;24.872;2023-01-29T10:17:05;99344.88;;;5.61;98.32
8573;BME280;4324;42.012;24.872;2023-01-29T10:19:47;99359.38;;;5.76;99.10
8573;BME280;4324;42.012;24.872;2023-01-29T10:22:41;99340.19;;;5.86;100.00
8573;BME280;4324;42.012;24.872;2023-01-29T10:25:13;99327.34;;;5.82;100.00
8573;BME280;4324;42.012;24.872;2023-01-29T10:27:46;99327.63;;;5.89;100.00
8573;BME280;4324;42.012;24.872;2023-01-29T10:30:23;99346.13;;;5.99;100.00
8573;BME280;4324;42.012;24.872;2023-01-29T10:32:54;99297.69;;;5.80;99.44
8573;BME280;4324;42.012;24.872;2023-01-29T10:35:27;99318.19;;;5.98;99.74
8573;BME280;4324;42.012;24.872;2023-01-29T10:37:57;99241.19;;;5.65;100.00
8573;BME280;4324;42.012;24.872;2023-01-29T10:40:36;99325.22;;;6.18;99.71
8573;BME280;4324;42.012;24.872;2023-01-29T10:43:10;99327.00;;;6.18;96.95
8573;BME280;4324;42.012;24.872;2023-01-29T10:45:43;99319.44;;;6.24;97.84
8573;BME280;4324;42.012;24.872;2023-01-29T10:48:47;99309.91;;;6.23;99.23
8573;BME280;4324;42.012;24.872;2023-01-29T10:51:32;99317.13;;;6.31;98.53
8573;BME280;4324;42.012;24.872;2023-01-29T10:54:17;99230.22;;;5.81;98.17
8573;BME280;4324;42.012;24.872;2023-01-29T10:56:58;99294.81;;;6.25;98.41
8573;BME280;4324;42.012;24.872;2023-01-29T10:59:43;99292.50;;;6.32;99.20
8573;BME280;4324;42.012;24.872;2023-01-29T11:02:17;99303.75;;;6.44;98.86
8573;BME280;4324;42.012;24.872;2023-01-29T11:04:46;99305.31;;;6.56;100.00
8573;BME280;4324;42.012;24.872;2023-01-29T11:07:15;99302.56;;;6.67;100.00
8573;BME280;4324;42.012;24.872;2023-01-29T11:09:49;99292.03;;;6.67;100.00
8573;BME280;4324;42.012;24.872;2023-01-29T11:12:19;99293.28;;;6.63;100.00
8573;BME280;4324;42.012;24.872;2023-01-29T11:14:54;99272.44;;;6.41;100.00
8573;BME280;4324;42.012;24.872;2023-01-29T11:17:23;99292.00;;;6.48;100.00
8573;BME280;4324;42.012;24.872;2023-01-29T11:19:53;99278.69;;;6.40;100.00
8573;BME280;4324;42.012;24.872;2023-01-29T11:22:22;99274.25;;;6.40;100.00
8573;BME280;4324;42.012;24.872;2023-01-29T11:25:08;99282.03;;;6.42;99.64
8573;BME280;4324;42.012;24.872;2023-01-29T11:27:41;99271.75;;;6.39;99.15
8573;BME280;4324;42.012;24.872;2023-01-29T11:30:15;99281.72;;;6.45;99.21
8573;BME280;4324;42.012;24.872;2023-01-29T11:32:43;99257.72;;;6.28;98.51
8573;BME280;4324;42.012;24.872;2023-01-29T11:35:21;99265.25;;;6.43;98.39
8573;BME280;4324;42.012;24.872;2023-01-29T11:37:49;99273.31;;;6.51;97.55
8573;BME280;4324;42.012;24.872;2023-01-29T11:40:40;99280.13;;;6.53;97.17
8573;BME280;4324;42.012;24.872;2023-01-29T11:43:28;99258.50;;;6.50;96.89
8573;BME280;4324;42.012;24.872;2023-01-29T11:45:57;99263.78;;;6.60;96.27
8573;BME280;4324;42.012;24.872;2023-01-29T11:48:31;99266.56;;;6.58;94.50
8573;BME280;4324;42.012;24.872;2023-01-29T11:50:59;99257.53;;;6.51;94.59
8573;BME280;4324;42.012;24.872;2023-01-29T11:53:36;99235.19;;;6.36;94.63
8573;BME280;4324;42.012;24.872;2023-01-29T11:56:19;99243.97;;;6.46;94.30
8573;BME280;4324;42.012;24.872;2023-01-29T11:58:48;99257.38;;;6.52;94.96
8573;BME280;4324;42.012;24.872;2023-01-29T12:01:29;99239.38;;;6.48;95.38
8573;BME280;4324;42.012;24.872;2023-01-29T12:03:56;99253.41;;;6.58;95.22
8573;BME280;4324;42.012;24.872;2023-01-29T12:06:28;99238.84;;;6.54;94.41
8573;BME280;4324;42.012;24.872;2023-01-29T12:09:10;99241.06;;;6.59;94.82
8573;BME280;4324;42.012;24.872;2023-01-29T12:11:40;99248.44;;;6.65;96.11
8573;BME280;4324;42.012;24.872;2023-01-29T12:14:26;99234.44;;;6.64;95.81
8573;BME280;4324;42.012;24.872;2023-01-29T12:16:55;99192.84;;;6.39;93.69
8573;BME280;4324;42.012;24.872;2023-01-29T12:19:28;99251.47;;;6.70;92.71
8573;BME280;4324;42.012;24.872;2023-01-29T12:22:01;99226.38;;;6.56;89.29
8573;BME280;4324;42.012;24.872;2023-01-29T12:24:51;99241.91;;;6.59;88.99
8573;BME280;4324;42.012;24.872;2023-01-29T12:27:26;99225.28;;;6.49;89.94
8573;BME280;4324;42.012;24.872;2023-01-29T12:29:59;99239.28;;;6.59;91.71
8573;BME280;4324;42.012;24.872;2023-01-29T12:32:35;99232.50;;;6.57;93.07
8573;BME280;4324;42.012;24.872;2023-01-29T12:35:11;99231.50;;;6.48;92.74
8573;BME280;4324;42.012;24.872;2023-01-29T12:37:47;99212.50;;;6.35;92.83
8573;BME280;4324;42.012;24.872;2023-01-29T12:40:20;99207.03;;;6.26;93.63
8573;BME280;4324;42.012;24.872;2023-01-29T12:42:55;99229.78;;;6.37;93.68
8573;BME280;4324;42.012;24.872;2023-01-29T12:45:25;99228.97;;;6.37;96.11
8573;BME280;4324;42.012;24.872;2023-01-29T12:47:55;99214.94;;;6.26;95.40
8573;BME280;4324;42.012;24.872;2023-01-29T12:50:26;99219.38;;;6.26;94.39
8573;BME280;4324;42.012;24.872;2023-01-29T12:52:56;99219.94;;;6.29;95.92
8573;BME280;4324;42.012;24.872;2023-01-29T12:55:28;99210.91;;;6.22;95.62
8573;BME280;4324;42.012;24.872;2023-01-29T12:57:58;99234.88;;;6.29;96.13
8573;BME280;4324;42.012;24.872;2023-01-29T13:00:28;99220.50;;;6.23;94.74
8573;BME280;4324;42.012;24.872;2023-01-29T13:02:59;99225.09;;;6.31;95.72
8573;BME280;4324;42.012;24.872;2023-01-29T13:05:29;99202.47;;;6.19;97.08
8573;BME280;4324;42.012;24.872;2023-01-29T13:08:03;99221.63;;;6.30;99.07
8573;BME280;4324;42.012;24.872;2023-01-29T13:10:35;99218.53;;;6.25;98.19
8573;BME280;4324;42.012;24.872;2023-01-29T13:13:06;99226.56;;;6.24;98.61
8573;BME280;4324;42.012;24.872;2023-01-29T13:15:40;99224.78;;;6.24;97.74
8573;BME280;4324;42.012;24.872;2023-01-29T13:18:35;99225.19;;;6.29;96.82
8573;BME280;4324;42.012;24.872;2023-01-29T13:21:04;99219.69;;;6.33;95.78
8573;BME280;4324;42.012;24.872;2023-01-29T13:23:34;99221.38;;;6.43;94.42
8573;BME280;4324;42.012;24.872;2023-01-29T13:26:04;99228.59;;;6.51;94.51
8573;BME280;4324;42.012;24.872;2023-01-29T13:28:36;99195.91;;;6.44;95.92
8573;BME280;4324;42.012;24.872;2023-01-29T13:31:16;99211.56;;;6.55;95.81
8573;BME280;4324;42.012;24.872;2023-01-29T13:33:51;99228.91;;;6.67;96.08
8573;BME280;4324;42.012;24.872;2023-01-29T13:36:24;99209.53;;;6.68;96.37
8573;BME280;4324;42.012;24.872;2023-01-29T13:38:56;99223.38;;;6.80;97.44
8573;BME280;4324;42.012;24.872;2023-01-29T13:41:32;99213.53;;;6.72;97.25
8573;BME280;4324;42.012;24.872;2023-01-29T13:44:01;99214.66;;;6.70;96.79
8573;BME280;4324;42.012;24.872;2023-01-29T13:46:28;99207.44;;;6.62;96.50